sensor_id;sensor_type;location;lat;lon;timestamp;P1;durP1;ratioP1;P2;durP2;ratioP2
6825;SDS011;3451;52.476;13.316;2023-04-01T00:02:21;4.70;;;2.10;;
6825;SDS011;3451;52.476;13.316;2023-04-01T00:04:47;4.57;;;2.03;;
6825;SDS011;3451;52.476;13.316;2023-04-01T00:07:13;5.00;;;2.07;;
6825;SDS011;3451;52.476;13.316;2023-04-01T00:09:40;3.70;;;2.00;;
6825;SDS011;3451;52.476;13.316;2023-04-01T00:12:06;3.03;;;1.93;;
6825;SDS011;3451;52.476;13.316;2023-04-01T00:14:32;4.57;;;2.00;;
6825;SDS011;3451;52.476;13.316;2023-04-01T00:16:59;3.17;;;1.87;;
6825;SDS011;3451;52.476;13.316;2023-04-01T00:19:25;2.90;;;1.83;;
6825;SDS011;3451;52.476;13.316;2023-04-01T00:21:51;2.70;;;1.70;;
6825;SDS011;3451;52.476;13.316;2023-04-01T00:24:18;2.93;;;1.90;;
6825;SDS011;3451;52.476;13.316;2023-04-01T00:26:45;2.97;;;1.90;;
6825;SDS011;3451;52.476;13.316;2023-04-01T00:29:11;5.57;;;2.00;;
6825;SDS011;3451;52.476;13.316;2023-04-01T00:31:38;2.83;;;1.80;;
6825;SDS011;3451;52.476;13.316;2023-04-01T00:34:04;2.83;;;1.73;;
6825;SDS011;3451;52.476;13.316;2023-04-01T00:36:30;3.40;;;1.90;;
6825;SDS011;3451;52.476;13.316;2023-04-01T00:38:57;4.77;;;1.90;;
6825;SDS011;3451;52.476;13.316;2023-04-01T00:41:24;3.97;;;1.80;;
6825;SDS011;3451;52.476;13.316;2023-04-01T00:43:52;2.97;;;1.80;;
6825;SDS011;3451;52.476;13.316;2023-04-01T00:46:18;4.40;;;2.00;;
6825;SDS011;3451;52.476;13.316;2023-04-01T00:48:46;3.37;;;2.10;;
6825;SDS011;3451;52.476;13.316;2023-04-01T00:51:28;3.40;;;1.70;;
6825;SDS011;3451;52.476;13.316;2023-04-01T00:53:55;4.40;;;1.80;;
6825;SDS011;3451;52.476;13.316;2023-04-01T00:56:24;3.63;;;2.20;;
6825;SDS011;3451;52.476;13.316;2023-04-01T00:59:00;5.97;;;2.20;;
6825;SDS011;3451;52.476;13.316;2023-04-01T01:01:28;2.73;;;1.70;;
6825;SDS011;3451;52.476;13.316;2023-04-01T01:03:55;5.57;;;1.70;;
6825;SDS011;3451;52.476;13.316;2023-04-01T01:06:34;3.23;;;1.80;;
6825;SDS011;3451;52.476;13.316;2023-04-01T01:09:06;3.50;;;1.80;;
6825;SDS011;3451;52.476;13.316;2023-04-01T01:11:37;5.47;;;2.10;;
6825;SDS011;3451;52.476;13.316;2023-04-01T01:14:10;2.53;;;1.70;;
6825;SDS011;3451;52.476;13.316;2023-04-01T01:16:43;5.40;;;1.90;;
6825;SDS011;3451;52.476;13.316;2023-04-01T01:19:33;3.37;;;1.80;;
6825;SDS011;3451;52.476;13.316;2023-04-01T01:22:17;2.90;;;1.70;;
6825;SDS011;3451;52.476;13.316;2023-04-01T01:27:30;3.17;;;1.57;;
6825;SDS011;3451;52.476;13.316;2023-04-01T01:29:59;5.07;;;1.80;;
6825;SDS011;3451;52.476;13.316;2023-04-01T01:35:31;2.87;;;1.50;;
6825;SDS011;3451;52.476;13.316;2023-04-01T01:37:52;3.40;;;1.50;;
6825;SDS011;3451;52.476;13.316;2023-04-01T01:40:18;4.40;;;1.83;;
6825;SDS011;3451;52.476;13.316;2023-04-01T01:42:48;6.30;;;2.00;;
6825;SDS011;3451;52.476;13.316;2023-04-01T01:45:16;6.20;;;1.60;;
6825;SDS011;3451;52.476;13.316;2023-04-01T01:47:44;2.50;;;1.50;;
6825;SDS011;3451;52.476;13.316;2023-04-01T01:50:11;5.17;;;1.97;;
6825;SDS011;3451;52.476;13.316;2023-04-01T01:52:38;3.20;;;1.40;;
6825;SDS011;3451;52.476;13.316;2023-04-01T01:57:49;3.17;;;1.70;;
6825;SDS011;3451;52.476;13.316;2023-04-01T02:00:16;3.23;;;1.60;;
6825;SDS011;3451;52.476;13.316;2023-04-01T02:02:44;4.70;;;1.83;;
6825;SDS011;3451;52.476;13.316;2023-04-01T02:05:11;6.53;;;2.50;;
6825;SDS011;3451;52.476;13.316;2023-04-01T02:07:42;3.17;;;1.60;;
6825;SDS011;3451;52.476;13.316;2023-04-01T02:10:10;6.40;;;1.87;;
6825;SDS011;3451;52.476;13.316;2023-04-01T02:12:36;2.07;;;1.47;;
6825;SDS011;3451;52.476;13.316;2023-04-01T02:15:07;5.10;;;2.10;;
6825;SDS011;3451;52.476;13.316;2023-04-01T02:17:35;3.73;;;1.90;;
6825;SDS011;3451;52.476;13.316;2023-04-01T02:20:04;2.33;;;1.43;;
6825;SDS011;3451;52.476;13.316;2023-04-01T02:22:33;5.53;;;1.87;;
6825;SDS011;3451;52.476;13.316;2023-04-01T02:25:04;4.13;;;1.80;;
6825;SDS011;3451;52.476;13.316;2023-04-01T02:27:32;2.90;;;1.60;;
6825;SDS011;3451;52.476;13.316;2023-04-01T02:29:58;2.90;;;1.77;;
6825;SDS011;3451;52.476;13.316;2023-04-01T02:32:25;2.90;;;1.90;;
6825;SDS011;3451;52.476;13.316;2023-04-01T02:34:53;3.20;;;1.70;;
6825;SDS011;3451;52.476;13.316;2023-04-01T02:37:20;2.30;;;1.80;;
6825;SDS011;3451;52.476;13.316;2023-04-01T02:39:46;4.63;;;1.60;;
6825;SDS011;3451;52.476;13.316;2023-04-01T02:42:13;3.20;;;1.70;;
6825;SDS011;3451;52.476;13.316;2023-04-01T02:44:39;3.27;;;1.90;;
6825;SDS011;3451;52.476;13.316;2023-04-01T02:47:06;2.10;;;1.70;;
6825;SDS011;3451;52.476;13.316;2023-04-01T02:49:32;6.03;;;1.93;;
6825;SDS011;3451;52.476;13.316;2023-04-01T02:51:58;2.77;;;1.60;;
6825;SDS011;3451;52.476;13.316;2023-04-01T02:54:25;5.30;;;2.00;;
6825;SDS011;3451;52.476;13.316;2023-04-01T02:56:51;5.87;;;1.93;;
6825;SDS011;3451;52.476;13.316;2023-04-01T02:59:17;2.90;;;1.70;;
6825;SDS011;3451;52.476;13.316;2023-04-01T03:01:43;2.97;;;1.90;;
6825;SDS011;3451;52.476;13.316;2023-04-01T03:04:10;4.53;;;1.93;;
6825;SDS011;3451;52.476;13.316;2023-04-01T03:06:36;3.60;;;1.83;;
6825;SDS011;3451;52.476;13.316;2023-04-01T03:09:03;3.23;;;1.80;;
6825;SDS011;3451;52.476;13.316;2023-04-01T03:11:29;4.03;;;2.20;;
6825;SDS011;3451;52.476;13.316;2023-04-01T03:13:55;5.53;;;1.90;;
6825;SDS011;3451;52.476;13.316;2023-04-01T03:16:22;4.27;;;2.33;;
6825;SDS011;3451;52.476;13.316;2023-04-01T03:18:48;3.93;;;1.90;;
6825;SDS011;3451;52.476;13.316;2023-04-01T03:21:17;3.70;;;2.20;;
6825;SDS011;3451;52.476;13.316;2023-04-01T03:23:44;4.03;;;2.10;;
6825;SDS011;3451;52.476;13.316;2023-04-01T03:26:10;3.37;;;1.80;;
6825;SDS011;3451;52.476;13.316;2023-04-01T03:28:37;4.43;;;1.90;;
6825;SDS011;3451;52.476;13.316;2023-04-01T03:31:03;4.17;;;1.90;;
6825;SDS011;3451;52.476;13.316;2023-04-01T03:33:30;3.93;;;1.80;;
6825;SDS011;3451;52.476;13.316;2023-04-01T03:35:57;4.30;;;2.20;;
6825;SDS011;3451;52.476;13.316;2023-04-01T03:38:23;3.87;;;2.00;;
6825;SDS011;3451;52.476;13.316;2023-04-01T03:40:49;4.30;;;2.00;;
6825;SDS011;3451;52.476;13.316;2023-04-01T03:43:16;3.70;;;2.00;;
6825;SDS011;3451;52.476;13.316;2023-04-01T03:45:46;3.80;;;2.07;;
6825;SDS011;3451;52.476;13.316;2023-04-01T03:48:13;4.10;;;2.60;;
6825;SDS011;3451;52.476;13.316;2023-04-01T03:50:40;5.33;;;2.17;;
6825;SDS011;3451;52.476;13.316;2023-04-01T03:53:06;3.40;;;2.03;;
6825;SDS011;3451;52.476;13.316;2023-04-01T03:55:33;7.27;;;2.50;;
6825;SDS011;3451;52.476;13.316;2023-04-01T03:58:01;3.97;;;2.23;;
6825;SDS011;3451;52.476;13.316;2023-04-01T04:00:28;4.73;;;2.33;;
6825;SDS011;3451;52.476;13.316;2023-04-01T04:02:55;3.57;;;2.10;;
6825;SDS011;3451;52.476;13.316;2023-04-01T04:05:25;3.73;;;1.70;;
6825;SDS011;3451;52.476;13.316;2023-04-01T04:07:51;5.97;;;2.30;;
6825;SDS011;3451;52.476;13.316;2023-04-01T04:10:18;4.27;;;1.80;;
6825;SDS011;3451;52.476;13.316;2023-04-01T04:12:45;5.07;;;2.53;;
6825;SDS011;3451;52.476;13.316;2023-04-01T04:15:11;4.17;;;2.00;;
6825;SDS011;3451;52.476;13.316;2023-04-01T04:17:38;4.10;;;2.33;;
6825;SDS011;3451;52.476;13.316;2023-04-01T04:20:04;3.87;;;1.87;;
6825;SDS011;3451;52.476;13.316;2023-04-01T04:22:31;4.20;;;1.90;;
6825;SDS011;3451;52.476;13.316;2023-04-01T04:24:57;10.40;;;2.63;;
6825;SDS011;3451;52.476;13.316;2023-04-01T04:27:23;5.33;;;2.33;;
6825;SDS011;3451;52.476;13.316;2023-04-01T04:29:50;4.97;;;2.00;;
6825;SDS011;3451;52.476;13.316;2023-04-01T04:32:16;6.03;;;2.10;;
6825;SDS011;3451;52.476;13.316;2023-04-01T04:34:42;5.10;;;2.43;;
6825;SDS011;3451;52.476;13.316;2023-04-01T04:37:08;5.73;;;2.00;;
6825;SDS011;3451;52.476;13.316;2023-04-01T04:39:35;3.90;;;2.13;;
6825;SDS011;3451;52.476;13.316;2023-04-01T04:42:01;7.20;;;2.23;;
6825;SDS011;3451;52.476;13.316;2023-04-01T04:44:28;4.67;;;2.17;;
6825;SDS011;3451;52.476;13.316;2023-04-01T04:46:54;5.93;;;2.40;;
6825;SDS011;3451;52.476;13.316;2023-04-01T04:49:23;3.27;;;1.70;;
6825;SDS011;3451;52.476;13.316;2023-04-01T04:51:49;4.47;;;2.20;;
6825;SDS011;3451;52.476;13.316;2023-04-01T04:54:16;3.53;;;1.90;;
6825;SDS011;3451;52.476;13.316;2023-04-01T04:56:42;4.73;;;2.27;;
6825;SDS011;3451;52.476;13.316;2023-04-01T04:59:09;4.90;;;2.50;;
6825;SDS011;3451;52.476;13.316;2023-04-01T05:01:35;5.33;;;2.20;;
6825;SDS011;3451;52.476;13.316;2023-04-01T05:04:01;4.67;;;1.90;;
6825;SDS011;3451;52.476;13.316;2023-04-01T05:06:28;5.27;;;2.70;;
6825;SDS011;3451;52.476;13.316;2023-04-01T05:08:55;6.27;;;2.20;;
6825;SDS011;3451;52.476;13.316;2023-04-01T05:11:22;5.10;;;2.10;;
6825;SDS011;3451;52.476;13.316;2023-04-01T05:13:49;7.10;;;2.30;;
6825;SDS011;3451;52.476;13.316;2023-04-01T05:16:17;5.20;;;2.03;;
6825;SDS011;3451;52.476;13.316;2023-04-01T05:18:44;5.27;;;2.40;;
6825;SDS011;3451;52.476;13.316;2023-04-01T05:21:11;4.57;;;2.00;;
6825;SDS011;3451;52.476;13.316;2023-04-01T05:23:37;5.57;;;2.30;;
6825;SDS011;3451;52.476;13.316;2023-04-01T05:26:08;6.87;;;2.60;;
6825;SDS011;3451;52.476;13.316;2023-04-01T05:28:35;4.03;;;1.93;;
6825;SDS011;3451;52.476;13.316;2023-04-01T05:31:02;8.30;;;2.30;;
6825;SDS011;3451;52.476;13.316;2023-04-01T05:33:29;3.20;;;2.30;;
6825;SDS011;3451;52.476;13.316;2023-04-01T05:35:55;3.13;;;2.20;;
6825;SDS011;3451;52.476;13.316;2023-04-01T05:38:22;5.70;;;2.37;;
6825;SDS011;3451;52.476;13.316;2023-04-01T05:40:48;3.10;;;2.13;;
6825;SDS011;3451;52.476;13.316;2023-04-01T05:43:15;4.07;;;2.03;;
6825;SDS011;3451;52.476;13.316;2023-04-01T05:45:41;4.83;;;2.40;;
6825;SDS011;3451;52.476;13.316;2023-04-01T05:48:07;5.90;;;2.27;;
6825;SDS011;3451;52.476;13.316;2023-04-01T05:50:33;8.07;;;2.10;;
6825;SDS011;3451;52.476;13.316;2023-04-01T05:53:00;4.43;;;2.20;;
6825;SDS011;3451;52.476;13.316;2023-04-01T05:55:26;4.10;;;2.30;;
6825;SDS011;3451;52.476;13.316;2023-04-01T05:57:53;5.03;;;2.10;;
6825;SDS011;3451;52.476;13.316;2023-04-01T06:00:19;7.00;;;2.43;;
6825;SDS011;3451;52.476;13.316;2023-04-01T06:02:46;4.70;;;2.40;;
6825;SDS011;3451;52.476;13.316;2023-04-01T06:05:20;3.73;;;2.20;;
6825;SDS011;3451;52.476;13.316;2023-04-01T06:07:47;4.00;;;2.10;;
6825;SDS011;3451;52.476;13.316;2023-04-01T06:10:20;6.33;;;2.13;;
6825;SDS011;3451;52.476;13.316;2023-04-01T06:12:51;6.17;;;2.40;;
6825;SDS011;3451;52.476;13.316;2023-04-01T06:15:25;5.90;;;2.90;;
6825;SDS011;3451;52.476;13.316;2023-04-01T06:20:32;6.60;;;2.30;;
6825;SDS011;3451;52.476;13.316;2023-04-01T06:25:35;5.37;;;2.70;;
6825;SDS011;3451;52.476;13.316;2023-04-01T06:30:58;7.47;;;2.53;;
6825;SDS011;3451;52.476;13.316;2023-04-01T06:33:31;5.70;;;2.83;;
6825;SDS011;3451;52.476;13.316;2023-04-01T06:36:23;7.20;;;2.80;;
6825;SDS011;3451;52.476;13.316;2023-04-01T06:38:58;6.73;;;2.60;;
6825;SDS011;3451;52.476;13.316;2023-04-01T06:46:58;6.90;;;3.10;;
6825;SDS011;3451;52.476;13.316;2023-04-01T06:52:11;7.37;;;2.93;;
6825;SDS011;3451;52.476;13.316;2023-04-01T06:54:44;7.67;;;2.90;;
6825;SDS011;3451;52.476;13.316;2023-04-01T06:57:24;7.00;;;3.07;;
6825;SDS011;3451;52.476;13.316;2023-04-01T06:59:55;6.33;;;2.60;;
6825;SDS011;3451;52.476;13.316;2023-04-01T07:02:29;6.67;;;2.63;;
6825;SDS011;3451;52.476;13.316;2023-04-01T07:04:58;9.37;;;2.93;;
6825;SDS011;3451;52.476;13.316;2023-04-01T07:09:52;7.27;;;2.90;;
6825;SDS011;3451;52.476;13.316;2023-04-01T07:12:28;5.70;;;2.77;;
6825;SDS011;3451;52.476;13.316;2023-04-01T07:14:56;8.83;;;2.77;;
6825;SDS011;3451;52.476;13.316;2023-04-01T07:17:25;6.33;;;2.43;;
6825;SDS011;3451;52.476;13.316;2023-04-01T07:22:33;6.50;;;2.60;;
6825;SDS011;3451;52.476;13.316;2023-04-01T07:25:03;6.13;;;2.70;;
6825;SDS011;3451;52.476;13.316;2023-04-01T07:27:31;7.40;;;2.87;;
6825;SDS011;3451;52.476;13.316;2023-04-01T07:29:57;6.50;;;2.87;;
6825;SDS011;3451;52.476;13.316;2023-04-01T07:32:29;6.00;;;3.00;;
6825;SDS011;3451;52.476;13.316;2023-04-01T07:35:07;5.13;;;2.30;;
6825;SDS011;3451;52.476;13.316;2023-04-01T07:40:26;5.07;;;2.20;;
6825;SDS011;3451;52.476;13.316;2023-04-01T07:42:58;6.80;;;2.17;;
6825;SDS011;3451;52.476;13.316;2023-04-01T07:45:34;4.07;;;2.20;;
6825;SDS011;3451;52.476;13.316;2023-04-01T07:48:06;7.97;;;2.40;;
6825;SDS011;3451;52.476;13.316;2023-04-01T07:50:38;5.30;;;2.50;;
6825;SDS011;3451;52.476;13.316;2023-04-01T07:58:31;4.33;;;1.77;;
6825;SDS011;3451;52.476;13.316;2023-04-01T08:01:02;5.53;;;2.17;;
6825;SDS011;3451;52.476;13.316;2023-04-01T08:03:45;3.17;;;1.80;;
6825;SDS011;3451;52.476;13.316;2023-04-01T08:06:29;3.23;;;1.67;;
6825;SDS011;3451;52.476;13.316;2023-04-01T08:09:09;3.47;;;1.70;;
6825;SDS011;3451;52.476;13.316;2023-04-01T08:11:41;3.40;;;1.40;;
6825;SDS011;3451;52.476;13.316;2023-04-01T08:16:49;2.40;;;1.50;;
6825;SDS011;3451;52.476;13.316;2023-04-01T08:19:44;4.53;;;1.80;;
6825;SDS011;3451;52.476;13.316;2023-04-01T08:22:16;3.97;;;1.90;;
6825;SDS011;3451;52.476;13.316;2023-04-01T08:24:46;3.27;;;1.63;;
6825;SDS011;3451;52.476;13.316;2023-04-01T08:27:25;3.17;;;1.63;;
6825;SDS011;3451;52.476;13.316;2023-04-01T08:30:02;5.90;;;1.90;;
6825;SDS011;3451;52.476;13.316;2023-04-01T08:32:34;6.63;;;2.07;;
6825;SDS011;3451;52.476;13.316;2023-04-01T08:35:07;3.87;;;1.63;;
6825;SDS011;3451;52.476;13.316;2023-04-01T08:37:35;5.13;;;1.80;;
6825;SDS011;3451;52.476;13.316;2023-04-01T08:40:13;5.17;;;1.93;;
6825;SDS011;3451;52.476;13.316;2023-04-01T08:42:53;6.40;;;1.67;;
6825;SDS011;3451;52.476;13.316;2023-04-01T08:45:44;2.43;;;1.30;;
6825;SDS011;3451;52.476;13.316;2023-04-01T08:51:15;3.37;;;1.40;;
6825;SDS011;3451;52.476;13.316;2023-04-01T08:53:50;1.07;;;0.90;;
6825;SDS011;3451;52.476;13.316;2023-04-01T08:59:08;5.63;;;1.60;;
6825;SDS011;3451;52.476;13.316;2023-04-01T09:04:23;3.47;;;1.90;;
6825;SDS011;3451;52.476;13.316;2023-04-01T09:07:09;2.90;;;1.90;;
6825;SDS011;3451;52.476;13.316;2023-04-01T09:20:26;5.17;;;3.50;;
6825;SDS011;3451;52.476;13.316;2023-04-01T09:28:18;6.27;;;4.30;;
6825;SDS011;3451;52.476;13.316;2023-04-01T09:33:25;7.57;;;5.90;;
6825;SDS011;3451;52.476;13.316;2023-04-01T09:36:18;8.97;;;6.00;;
6825;SDS011;3451;52.476;13.316;2023-04-01T09:38:57;9.57;;;6.57;;
6825;SDS011;3451;52.476;13.316;2023-04-01T09:41:29;9.47;;;5.67;;
6825;SDS011;3451;52.476;13.316;2023-04-01T09:44:00;9.23;;;6.13;;
6825;SDS011;3451;52.476;13.316;2023-04-01T09:46:46;9.00;;;6.63;;
6825;SDS011;3451;52.476;13.316;2023-04-01T09:49:20;7.60;;;5.57;;
6825;SDS011;3451;52.476;13.316;2023-04-01T09:52:01;8.43;;;5.80;;
6825;SDS011;3451;52.476;13.316;2023-04-01T09:54:47;8.37;;;5.73;;
6825;SDS011;3451;52.476;13.316;2023-04-01T10:00:06;7.83;;;6.47;;
6825;SDS011;3451;52.476;13.316;2023-04-01T10:05:19;8.33;;;6.57;;
6825;SDS011;3451;52.476;13.316;2023-04-01T10:08:06;8.87;;;6.00;;
6825;SDS011;3451;52.476;13.316;2023-04-01T10:16:08;7.07;;;5.87;;
6825;SDS011;3451;52.476;13.316;2023-04-01T10:21:29;8.63;;;6.00;;
6825;SDS011;3451;52.476;13.316;2023-04-01T10:34:25;8.40;;;6.60;;
6825;SDS011;3451;52.476;13.316;2023-04-01T10:36:58;7.40;;;6.23;;
6825;SDS011;3451;52.476;13.316;2023-04-01T10:39:33;9.23;;;7.23;;
6825;SDS011;3451;52.476;13.316;2023-04-01T10:49:46;8.50;;;6.27;;
6825;SDS011;3451;52.476;13.316;2023-04-01T10:55:12;7.97;;;6.17;;
6825;SDS011;3451;52.476;13.316;2023-04-01T11:10:40;10.57;;;8.67;;
6825;SDS011;3451;52.476;13.316;2023-04-01T11:13:18;8.50;;;7.57;;
6825;SDS011;3451;52.476;13.316;2023-04-01T11:22:19;9.97;;;8.03;;
6825;SDS011;3451;52.476;13.316;2023-04-01T11:24:17;8.50;;;7.60;;
6825;SDS011;3451;52.476;13.316;2023-04-01T11:29:47;9.47;;;7.93;;
6825;SDS011;3451;52.476;13.316;2023-04-01T11:32:38;9.03;;;7.60;;
6825;SDS011;3451;52.476;13.316;2023-04-01T11:40:27;7.37;;;6.57;;
6825;SDS011;3451;52.476;13.316;2023-04-01T11:43:01;8.17;;;6.93;;
6825;SDS011;3451;52.476;13.316;2023-04-01T11:45:36;7.47;;;6.77;;
6825;SDS011;3451;52.476;13.316;2023-04-01T11:50:37;6.90;;;5.60;;
6825;SDS011;3451;52.476;13.316;2023-04-01T12:00:55;5.57;;;4.40;;
6825;SDS011;3451;52.476;13.316;2023-04-01T12:03:31;3.43;;;3.13;;
6825;SDS011;3451;52.476;13.316;2023-04-01T12:08:31;3.50;;;3.13;;
6825;SDS011;3451;52.476;13.316;2023-04-01T12:16:28;3.70;;;3.30;;
6825;SDS011;3451;52.476;13.316;2023-04-01T12:26:30;4.20;;;3.50;;
6825;SDS011;3451;52.476;13.316;2023-04-01T12:32:02;5.23;;;3.90;;
6825;SDS011;3451;52.476;13.316;2023-04-01T12:34:41;6.20;;;5.27;;
6825;SDS011;3451;52.476;13.316;2023-04-01T12:37:21;5.67;;;5.07;;
6825;SDS011;3451;52.476;13.316;2023-04-01T12:40:06;6.40;;;5.27;;
6825;SDS011;3451;52.476;13.316;2023-04-01T12:42:52;9.93;;;8.07;;
6825;SDS011;3451;52.476;13.316;2023-04-01T12:45:28;11.50;;;7.57;;
6825;SDS011;3451;52.476;13.316;2023-04-01T12:48:03;9.27;;;8.37;;
6825;SDS011;3451;52.476;13.316;2023-04-01T12:50:34;9.00;;;8.10;;
6825;SDS011;3451;52.476;13.316;2023-04-01T12:53:17;9.97;;;6.77;;
6825;SDS011;3451;52.476;13.316;2023-04-01T12:55:46;7.20;;;6.07;;
6825;SDS011;3451;52.476;13.316;2023-04-01T12:58:29;5.67;;;4.97;;
6825;SDS011;3451;52.476;13.316;2023-04-01T13:08:55;6.10;;;5.50;;
6825;SDS011;3451;52.476;13.316;2023-04-01T13:11:37;6.63;;;5.60;;
6825;SDS011;3451;52.476;13.316;2023-04-01T13:16:54;10.47;;;9.20;;
6825;SDS011;3451;52.476;13.316;2023-04-01T13:19:36;11.37;;;9.87;;
6825;SDS011;3451;52.476;13.316;2023-04-01T13:24:38;12.10;;;10.47;;
6825;SDS011;3451;52.476;13.316;2023-04-01T13:32:26;12.60;;;10.60;;
6825;SDS011;3451;52.476;13.316;2023-04-01T13:35:11;11.50;;;10.20;;
6825;SDS011;3451;52.476;13.316;2023-04-01T13:37:45;12.07;;;10.23;;
6825;SDS011;3451;52.476;13.316;2023-04-01T13:43:08;12.30;;;9.53;;
6825;SDS011;3451;52.476;13.316;2023-04-01T13:45:50;9.87;;;8.43;;
6825;SDS011;3451;52.476;13.316;2023-04-01T13:50:57;8.60;;;7.67;;
6825;SDS011;3451;52.476;13.316;2023-04-01T14:03:38;9.53;;;8.50;;
6825;SDS011;3451;52.476;13.316;2023-04-01T14:06:16;8.83;;;7.93;;
6825;SDS011;3451;52.476;13.316;2023-04-01T14:08:58;9.23;;;7.67;;
6825;SDS011;3451;52.476;13.316;2023-04-01T14:11:38;8.20;;;7.40;;
6825;SDS011;3451;52.476;13.316;2023-04-01T14:14:18;8.33;;;7.43;;
6825;SDS011;3451;52.476;13.316;2023-04-01T14:17:02;10.90;;;8.07;;
6825;SDS011;3451;52.476;13.316;2023-04-01T14:22:05;8.90;;;8.00;;
6825;SDS011;3451;52.476;13.316;2023-04-01T14:24:37;10.37;;;8.07;;
6825;SDS011;3451;52.476;13.316;2023-04-01T14:27:20;7.70;;;6.90;;
6825;SDS011;3451;52.476;13.316;2023-04-01T14:32:39;8.07;;;7.23;;
6825;SDS011;3451;52.476;13.316;2023-04-01T14:35:26;7.83;;;6.80;;
6825;SDS011;3451;52.476;13.316;2023-04-01T14:38:04;7.87;;;6.80;;
6825;SDS011;3451;52.476;13.316;2023-04-01T14:40:46;8.13;;;6.70;;
6825;SDS011;3451;52.476;13.316;2023-04-01T14:48:56;8.30;;;7.00;;
6825;SDS011;3451;52.476;13.316;2023-04-01T14:51:29;7.63;;;6.53;;
6825;SDS011;3451;52.476;13.316;2023-04-01T14:56:42;8.27;;;6.63;;
6825;SDS011;3451;52.476;13.316;2023-04-01T14:59:31;8.30;;;6.20;;
6825;SDS011;3451;52.476;13.316;2023-04-01T15:02:14;8.33;;;5.90;;
6825;SDS011;3451;52.476;13.316;2023-04-01T15:04:49;7.47;;;5.57;;
6825;SDS011;3451;52.476;13.316;2023-04-01T15:12:53;9.87;;;6.40;;
6825;SDS011;3451;52.476;13.316;2023-04-01T15:18:13;8.43;;;6.53;;
6825;SDS011;3451;52.476;13.316;2023-04-01T15:23:27;7.23;;;6.00;;
6825;SDS011;3451;52.476;13.316;2023-04-01T15:28:27;7.47;;;6.40;;
6825;SDS011;3451;52.476;13.316;2023-04-01T15:31:17;7.10;;;6.40;;
6825;SDS011;3451;52.476;13.316;2023-04-01T15:33:47;7.90;;;6.77;;
6825;SDS011;3451;52.476;13.316;2023-04-01T15:38:51;6.97;;;6.27;;
6825;SDS011;3451;52.476;13.316;2023-04-01T15:41:23;6.83;;;6.13;;
6825;SDS011;3451;52.476;13.316;2023-04-01T15:43:51;7.73;;;6.20;;
6825;SDS011;3451;52.476;13.316;2023-04-01T15:46:21;8.50;;;7.00;;
6825;SDS011;3451;52.476;13.316;2023-04-01T15:51:48;8.70;;;6.47;;
6825;SDS011;3451;52.476;13.316;2023-04-01T15:54:25;6.53;;;5.87;;
6825;SDS011;3451;52.476;13.316;2023-04-01T15:57:03;6.70;;;5.67;;
6825;SDS011;3451;52.476;13.316;2023-04-01T16:04:57;8.97;;;5.97;;
6825;SDS011;3451;52.476;13.316;2023-04-01T16:07:43;8.00;;;5.67;;
6825;SDS011;3451;52.476;13.316;2023-04-01T16:10:31;8.13;;;6.03;;
6825;SDS011;3451;52.476;13.316;2023-04-01T16:20:42;8.53;;;7.17;;
6825;SDS011;3451;52.476;13.316;2023-04-01T16:23:12;9.03;;;7.23;;
6825;SDS011;3451;52.476;13.316;2023-04-01T16:25:44;7.53;;;6.43;;
6825;SDS011;3451;52.476;13.316;2023-04-01T16:33:35;7.83;;;6.30;;
6825;SDS011;3451;52.476;13.316;2023-04-01T16:38:39;8.20;;;6.33;;
6825;SDS011;3451;52.476;13.316;2023-04-01T16:41:16;8.00;;;6.30;;
6825;SDS011;3451;52.476;13.316;2023-04-01T16:46:25;7.63;;;5.57;;
6825;SDS011;3451;52.476;13.316;2023-04-01T16:51:31;7.57;;;6.03;;
6825;SDS011;3451;52.476;13.316;2023-04-01T16:57:14;7.37;;;5.63;;
6825;SDS011;3451;52.476;13.316;2023-04-01T17:02:58;7.13;;;5.70;;
6825;SDS011;3451;52.476;13.316;2023-04-01T17:08:07;6.50;;;5.10;;
6825;SDS011;3451;52.476;13.316;2023-04-01T17:10:45;6.30;;;4.83;;
6825;SDS011;3451;52.476;13.316;2023-04-01T17:13:35;7.83;;;5.10;;
6825;SDS011;3451;52.476;13.316;2023-04-01T17:16:15;6.40;;;5.10;;
6825;SDS011;3451;52.476;13.316;2023-04-01T17:21:25;6.27;;;4.90;;
6825;SDS011;3451;52.476;13.316;2023-04-01T17:28:57;7.27;;;5.30;;
6825;SDS011;3451;52.476;13.316;2023-04-01T17:31:37;8.43;;;5.37;;
6825;SDS011;3451;52.476;13.316;2023-04-01T17:34:09;7.77;;;5.73;;
6825;SDS011;3451;52.476;13.316;2023-04-01T17:39:45;6.80;;;6.10;;
6825;SDS011;3451;52.476;13.316;2023-04-01T17:42:24;6.80;;;6.00;;
6825;SDS011;3451;52.476;13.316;2023-04-01T17:45:04;7.20;;;6.07;;
6825;SDS011;3451;52.476;13.316;2023-04-01T17:47:47;6.50;;;5.73;;
6825;SDS011;3451;52.476;13.316;2023-04-01T17:57:56;6.20;;;5.57;;
6825;SDS011;3451;52.476;13.316;2023-04-01T18:00:26;6.77;;;5.30;;
6825;SDS011;3451;52.476;13.316;2023-04-01T18:05:47;8.40;;;5.80;;
6825;SDS011;3451;52.476;13.316;2023-04-01T18:13:29;9.27;;;6.10;;
6825;SDS011;3451;52.476;13.316;2023-04-01T18:18:46;5.87;;;5.27;;
6825;SDS011;3451;52.476;13.316;2023-04-01T18:24:00;8.13;;;5.67;;
6825;SDS011;3451;52.476;13.316;2023-04-01T18:26:29;8.47;;;5.40;;
6825;SDS011;3451;52.476;13.316;2023-04-01T18:31:34;7.27;;;5.47;;
6825;SDS011;3451;52.476;13.316;2023-04-01T18:34:12;10.00;;;6.40;;
6825;SDS011;3451;52.476;13.316;2023-04-01T18:36:44;6.33;;;5.40;;
6825;SDS011;3451;52.476;13.316;2023-04-01T18:39:12;8.70;;;5.57;;
6825;SDS011;3451;52.476;13.316;2023-04-01T18:41:50;8.73;;;5.60;;
6825;SDS011;3451;52.476;13.316;2023-04-01T18:52:44;8.50;;;6.00;;
6825;SDS011;3451;52.476;13.316;2023-04-01T18:55:28;7.83;;;5.67;;
6825;SDS011;3451;52.476;13.316;2023-04-01T18:57:58;8.43;;;5.77;;
6825;SDS011;3451;52.476;13.316;2023-04-01T19:00:32;8.20;;;5.77;;
6825;SDS011;3451;52.476;13.316;2023-04-01T19:03:05;7.27;;;5.37;;
6825;SDS011;3451;52.476;13.316;2023-04-01T19:05:34;7.70;;;5.27;;
6825;SDS011;3451;52.476;13.316;2023-04-01T19:08:24;9.23;;;6.43;;
6825;SDS011;3451;52.476;13.316;2023-04-01T19:10:55;8.77;;;6.33;;
6825;SDS011;3451;52.476;13.316;2023-04-01T19:15:58;8.73;;;6.30;;
6825;SDS011;3451;52.476;13.316;2023-04-01T19:18:35;10.07;;;6.67;;
6825;SDS011;3451;52.476;13.316;2023-04-01T19:21:14;10.27;;;7.63;;
6825;SDS011;3451;52.476;13.316;2023-04-01T19:24:01;9.67;;;6.60;;
6825;SDS011;3451;52.476;13.316;2023-04-01T19:29:26;8.13;;;5.90;;
6825;SDS011;3451;52.476;13.316;2023-04-01T19:32:00;11.43;;;6.23;;
6825;SDS011;3451;52.476;13.316;2023-04-01T19:34:45;12.13;;;6.47;;
6825;SDS011;3451;52.476;13.316;2023-04-01T19:40:15;10.20;;;6.70;;
6825;SDS011;3451;52.476;13.316;2023-04-01T19:43:03;10.30;;;7.07;;
6825;SDS011;3451;52.476;13.316;2023-04-01T19:45:41;13.77;;;7.57;;
6825;SDS011;3451;52.476;13.316;2023-04-01T19:50:58;12.27;;;7.47;;
6825;SDS011;3451;52.476;13.316;2023-04-01T19:53:28;15.03;;;7.93;;
6825;SDS011;3451;52.476;13.316;2023-04-01T19:56:02;10.73;;;6.90;;
6825;SDS011;3451;52.476;13.316;2023-04-01T20:00:59;12.93;;;7.20;;
6825;SDS011;3451;52.476;13.316;2023-04-01T20:06:01;12.93;;;7.37;;
6825;SDS011;3451;52.476;13.316;2023-04-01T20:13:51;11.77;;;8.07;;
6825;SDS011;3451;52.476;13.316;2023-04-01T20:16:21;11.63;;;7.73;;
6825;SDS011;3451;52.476;13.316;2023-04-01T20:18:50;12.47;;;7.87;;
6825;SDS011;3451;52.476;13.316;2023-04-01T20:21:28;10.60;;;8.27;;
6825;SDS011;3451;52.476;13.316;2023-04-01T20:23:59;15.40;;;9.97;;
6825;SDS011;3451;52.476;13.316;2023-04-01T20:26:36;14.30;;;8.87;;
6825;SDS011;3451;52.476;13.316;2023-04-01T20:42:33;14.60;;;8.97;;
6825;SDS011;3451;52.476;13.316;2023-04-01T20:47:53;14.30;;;8.50;;
6825;SDS011;3451;52.476;13.316;2023-04-01T20:50:31;10.83;;;7.90;;
6825;SDS011;3451;52.476;13.316;2023-04-01T20:53:16;13.30;;;8.50;;
6825;SDS011;3451;52.476;13.316;2023-04-01T20:58:14;11.33;;;7.10;;
6825;SDS011;3451;52.476;13.316;2023-04-01T21:06:03;10.57;;;7.40;;
6825;SDS011;3451;52.476;13.316;2023-04-01T21:14:01;9.30;;;6.70;;
6825;SDS011;3451;52.476;13.316;2023-04-01T21:16:41;10.33;;;7.50;;
6825;SDS011;3451;52.476;13.316;2023-04-01T21:19:28;10.57;;;7.33;;
6825;SDS011;3451;52.476;13.316;2023-04-01T21:22:12;10.83;;;7.03;;
6825;SDS011;3451;52.476;13.316;2023-04-01T21:32:52;9.37;;;6.07;;